ROMMA est une association bénévole à but non lucratif. Votre soutien est indispensable : ADHERER à ROMMA ou FAIRE un DON

Granges-lès-Beaumont - (26, Drôme)

Drôme des Collines (155 m)   Longitude: 04°58'E   Latitude: 45°03'N Station partenaire n°123
 

Détail journalier du     <<     >>

Température Precipitation Humidité Pression Vent Dir Rafale Dir. rafale Ensol.
Heure (°C) (mm) (%) (hPa) (km/h) (km/h) (min)
01:00 2.3085103414NO26NO0
02:00 1.8086103414NNO27NNO0
03:00 1.3087103411N21NNO0
04:00 1.1088103414NNO24N0
05:00 0.8088103412N21NNO0
06:00 0.3088103510NNO18NNE0
07:00 -0.108810358NNO15NNO0
08:00 -0.408810356NNO13NNO0
09:00 1.208810366NNO11NNO40
10:00 3.408510368NNO15NO20
11:00 5.307610368N16N0
12:00 7.306610366NE16NE30
13:00 8.406310355ENE11NO60
14:00 9.606010355ENE11E60
15:00 10.705810343NE11ENE60
16:00 10.905610342ENE8ENE60
17:00 10.9057103400---60
18:00 9.5065103400---30
19:00 5.907510343ENE8NNE0
20:00 4.207910344NNO10NNO0
21:00 2.608310351NNO5NNO0
22:00 1.3085103500---0
23:00 0.2086103600---0
minuit -0.1087103600---0

Graphique du 13-02-2019

 

Serveur OMMA